Time,TemperatureF,DewpointF,PressureIn,WindDirection,WindDirectionDegrees,WindSpeedMPH,WindSpeedGustMPH,Humidity,HourlyPrecipIn,Conditions,Clouds,dailyrainin,SoftwareType,DateUTC
2013-02-25 00:00:00,37.0,28.1,30.24,ENE,69,3.0,6.0,70,0.00,,---,0.00,VWS V14.01,2013-02-25 06:00:00,
2013-02-25 00:05:00,36.9,28.0,30.24,ENE,69,2.0,4.0,70,0.00,,---,0.00,VWS V14.01,2013-02-25 06:05:00,
2013-02-25 00:10:00,36.8,28.3,30.24,ENE,69,3.0,6.0,71,0.00,,---,0.00,VWS V14.01,2013-02-25 06:10:00,
2013-02-25 00:15:00,36.8,28.6,30.24,ENE,69,1.0,5.0,72,0.00,,---,0.00,VWS V14.01,2013-02-25 06:15:00,
2013-02-25 00:20:00,36.6,28.4,30.24,ENE,69,2.0,5.0,72,0.00,,---,0.00,VWS V14.01,2013-02-25 06:20:00,
2013-02-25 00:25:00,36.5,28.4,30.24,ENE,69,1.0,3.0,72,0.00,,---,0.00,VWS V14.01,2013-02-25 06:25:00,
2013-02-25 00:30:00,36.3,28.1,30.24,ENE,69,1.0,3.0,72,0.00,,---,0.00,VWS V14.01,2013-02-25 06:30:00,
2013-02-25 00:35:00,36.2,28.1,30.24,ENE,69,1.0,3.0,72,0.00,,---,0.00,VWS V14.01,2013-02-25 06:35:00,
2013-02-25 00:40:00,36.0,27.9,30.24,ENE,69,4.0,4.0,72,0.00,,---,0.00,VWS V14.01,2013-02-25 06:40:00,
2013-02-25 00:45:00,35.8,27.7,30.23,ENE,69,5.0,5.0,72,0.00,,---,0.00,VWS V14.01,2013-02-25 06:45:00,
2013-02-25 00:50:00,35.8,28.0,30.23,ENE,74,5.0,6.0,73,0.00,,---,0.00,VWS V14.01,2013-02-25 06:50:00,
2013-02-25 00:55:00,35.6,28.1,30.23,ENE,74,3.0,5.0,74,0.00,,---,0.00,VWS V14.01,2013-02-25 06:55:00,
2013-02-25 01:00:00,35.5,28.0,30.23,NE,44,2.0,5.0,74,0.00,,---,0.00,VWS V14.01,2013-02-25 07:00:00,
2013-02-25 01:05:00,35.5,28.0,30.23,NE,49,4.0,7.0,74,0.00,,---,0.00,VWS V14.01,2013-02-25 07:05:00,
2013-02-25 01:10:00,35.6,28.5,30.23,NE,49,3.0,8.0,75,0.00,,---,0.00,VWS V14.01,2013-02-25 07:10:00,
2013-02-25 01:15:00,35.8,28.7,30.24,NE,49,2.0,4.0,75,0.00,,---,0.00,VWS V14.01,2013-02-25 07:15:00,
2013-02-25 01:20:00,35.9,29.1,30.24,NNE,24,5.0,6.0,76,0.00,,---,0.00,VWS V14.01,2013-02-25 07:20:00,
2013-02-25 01:25:00,35.9,29.1,30.24,NNE,24,4.0,7.0,76,0.00,,---,0.00,VWS V14.01,2013-02-25 07:25:00,
2013-02-25 01:30:00,36.0,29.2,30.24,NNE,32,1.0,7.0,76,0.00,,---,0.00,VWS V14.01,2013-02-25 07:30:00,
2013-02-25 01:35:00,36.0,29.2,30.24,NNE,32,0.0,3.0,76,0.00,,---,0.00,VWS V14.01,2013-02-25 07:35:00,
2013-02-25 01:40:00,36.0,29.2,30.24,NE,51,6.0,6.0,76,0.00,,---,0.00,VWS V14.01,2013-02-25 07:40:00,
2013-02-25 01:45:00,35.9,29.1,30.26,NE,47,5.0,7.0,76,0.00,,---,0.00,VWS V14.01,2013-02-25 07:45:00,
2013-02-25 01:50:00,35.9,29.1,30.26,NE,51,5.0,7.0,76,0.00,,---,0.00,VWS V14.01,2013-02-25 07:50:00,
2013-02-25 01:55:00,35.9,29.4,30.26,NE,46,3.0,7.0,77,0.00,,---,0.00,VWS V14.01,2013-02-25 07:55:00,
2013-02-25 02:00:00,35.9,29.4,30.24,NE,53,2.0,7.0,77,0.00,,---,0.00,VWS V14.01,2013-02-25 08:00:00,
2013-02-25 02:05:00,35.9,29.4,30.24,NE,56,3.0,5.0,77,0.00,,---,0.00,VWS V14.01,2013-02-25 08:05:00,
2013-02-25 02:10:00,35.8,29.3,30.24,ENE,60,4.0,5.0,77,0.00,,---,0.00,VWS V14.01,2013-02-25 08:10:00,
2013-02-25 02:15:00,35.6,29.1,30.24,ENE,60,3.0,6.0,77,0.00,,---,0.00,VWS V14.01,2013-02-25 08:15:00,
2013-02-25 02:20:00,35.6,29.4,30.24,ENE,62,4.0,6.0,78,0.00,,---,0.00,VWS V14.01,2013-02-25 08:20:00,
2013-02-25 02:25:00,35.5,29.3,30.24,ENE,64,4.0,5.0,78,0.00,,---,0.00,VWS V14.01,2013-02-25 08:25:00,
2013-02-25 02:30:00,35.3,29.1,30.23,ENE,64,3.0,5.0,78,0.00,,---,0.00,VWS V14.01,2013-02-25 08:30:00,
2013-02-25 02:35:00,35.2,29.0,30.23,ENE,64,3.0,4.0,78,0.00,,---,0.00,VWS V14.01,2013-02-25 08:35:00,
2013-02-25 02:40:00,35.0,28.9,30.23,ENE,64,5.0,6.0,78,0.00,,---,0.00,VWS V14.01,2013-02-25 08:40:00,
2013-02-25 02:45:00,34.9,28.8,30.22,ENE,69,5.0,6.0,78,0.00,,---,0.00,VWS V14.01,2013-02-25 08:45:00,
2013-02-25 02:50:00,34.9,29.1,30.22,ENE,69,4.0,6.0,79,0.00,,---,0.00,VWS V14.01,2013-02-25 08:50:00,
2013-02-25 02:55:00,34.7,28.9,30.22,ENE,67,6.0,7.0,79,0.00,,---,0.00,VWS V14.01,2013-02-25 08:55:00,
2013-02-25 03:00:00,34.9,29.4,30.20,East,83,8.0,10.0,80,0.00,,---,0.00,VWS V14.01,2013-02-25 09:00:00,
2013-02-25 03:05:00,35.2,29.7,30.20,NE,42,6.0,11.0,80,0.00,,---,0.00,VWS V14.01,2013-02-25 09:05:00,
2013-02-25 03:10:00,35.5,30.3,30.20,NE,52,10.0,11.0,81,0.00,,---,0.00,VWS V14.01,2013-02-25 09:10:00,
2013-02-25 03:15:00,35.6,30.4,30.19,ENE,73,8.0,14.0,81,0.00,,---,0.00,VWS V14.01,2013-02-25 09:15:00,
2013-02-25 03:20:00,35.8,30.5,30.19,ENE,74,11.0,14.0,81,0.00,,---,0.00,VWS V14.01,2013-02-25 09:20:00,
2013-02-25 03:25:00,35.9,30.6,30.19,ENE,69,6.0,11.0,81,0.00,,---,0.00,VWS V14.01,2013-02-25 09:25:00,
2013-02-25 03:30:00,35.9,30.6,30.19,East,98,10.0,11.0,81,0.00,,---,0.00,VWS V14.01,2013-02-25 09:30:00,
2013-02-25 03:35:00,35.9,30.6,30.19,ENE,64,6.0,13.0,81,0.00,,---,0.00,VWS V14.01,2013-02-25 09:35:00,
2013-02-25 03:40:00,36.0,30.8,30.19,NE,52,10.0,13.0,81,0.00,,---,0.00,VWS V14.01,2013-02-25 09:40:00,
2013-02-25 03:45:00,36.2,30.9,30.18,ENE,76,6.0,14.0,81,0.00,,---,0.00,VWS V14.01,2013-02-25 09:45:00,
2013-02-25 03:50:00,36.3,31.0,30.18,ENE,61,7.0,14.0,81,0.00,,---,0.00,VWS V14.01,2013-02-25 09:50:00,
2013-02-25 03:55:00,36.5,31.2,30.18,East,79,9.0,12.0,81,0.00,,---,0.00,VWS V14.01,2013-02-25 09:55:00,
2013-02-25 04:00:00,36.5,31.2,30.18,ENE,63,5.0,12.0,81,0.00,,---,0.00,VWS V14.01,2013-02-25 10:00:00,
2013-02-25 04:05:00,36.6,31.3,30.18,ENE,75,5.0,11.0,81,0.00,,---,0.00,VWS V14.01,2013-02-25 10:05:00,
2013-02-25 04:10:00,36.8,31.5,30.18,East,86,10.0,12.0,81,0.00,,---,0.00,VWS V14.01,2013-02-25 10:10:00,
2013-02-25 04:15:00,36.9,31.6,30.18,ENE,59,7.0,15.0,81,0.00,,---,0.00,VWS V14.01,2013-02-25 10:15:00,
2013-02-25 04:20:00,37.0,31.4,30.18,East,93,12.0,16.0,80,0.00,,---,0.00,VWS V14.01,2013-02-25 10:20:00,
2013-02-25 04:25:00,37.2,31.6,30.18,ENE,78,11.0,13.0,80,0.00,,---,0.00,VWS V14.01,2013-02-25 10:25:00,
2013-02-25 04:30:00,37.3,31.4,30.18,ENE,63,10.0,16.0,79,0.00,,---,0.00,VWS V14.01,2013-02-25 10:30:00,
2013-02-25 04:35:00,37.5,31.6,30.18,ENE,68,10.0,17.0,79,0.00,,---,0.00,VWS V14.01,2013-02-25 10:35:00,
2013-02-25 04:40:00,37.5,31.6,30.18,ENE,67,9.0,17.0,79,0.00,,---,0.00,VWS V14.01,2013-02-25 10:40:00,
2013-02-25 04:45:00,37.5,31.3,30.18,ENE,70,12.0,13.0,78,0.00,,---,0.00,VWS V14.01,2013-02-25 10:45:00,
2013-02-25 04:50:00,37.5,31.3,30.18,ENE,72,5.0,13.0,78,0.00,,---,0.00,VWS V14.01,2013-02-25 10:50:00,
2013-02-25 04:55:00,37.5,31.3,30.18,NE,38,4.0,13.0,78,0.00,,---,0.00,VWS V14.01,2013-02-25 10:55:00,
2013-02-25 05:00:00,37.5,31.3,30.18,ENE,76,10.0,13.0,78,0.00,,---,0.00,VWS V14.01,2013-02-25 11:00:00,
2013-02-25 05:05:00,37.5,31.3,30.18,ENE,76,7.0,11.0,78,0.00,,---,0.00,VWS V14.01,2013-02-25 11:05:00,
2013-02-25 05:10:00,37.5,31.3,30.18,East,94,7.0,12.0,78,0.00,,---,0.00,VWS V14.01,2013-02-25 11:10:00,
2013-02-25 05:15:00,37.5,31.3,30.19,ENE,75,9.0,13.0,78,0.00,,---,0.00,VWS V14.01,2013-02-25 11:15:00,
2013-02-25 05:20:00,37.3,31.1,30.19,NE,56,4.0,13.0,78,0.00,,---,0.00,VWS V14.01,2013-02-25 11:20:00,
2013-02-25 05:25:00,37.3,31.1,30.19,NE,54,10.0,12.0,78,0.00,,---,0.00,VWS V14.01,2013-02-25 11:25:00,
2013-02-25 05:30:00,37.5,31.0,30.20,ENE,69,12.0,12.0,77,0.00,,---,0.00,VWS V14.01,2013-02-25 11:30:00,
2013-02-25 05:35:00,37.5,31.0,30.20,ENE,63,6.0,11.0,77,0.00,,---,0.00,VWS V14.01,2013-02-25 11:35:00,
2013-02-25 05:40:00,37.5,31.0,30.20,ENE,62,6.0,11.0,77,0.00,,---,0.00,VWS V14.01,2013-02-25 11:40:00,
2013-02-25 05:45:00,37.5,31.0,30.17,ENE,60,4.0,11.0,77,0.00,,---,0.00,VWS V14.01,2013-02-25 11:45:00,
2013-02-25 05:50:00,37.5,31.0,30.17,East,88,10.0,14.0,77,0.00,,---,0.00,VWS V14.01,2013-02-25 11:50:00,
2013-02-25 05:55:00,37.3,30.4,30.17,ENE,63,10.0,15.0,76,0.00,,---,0.00,VWS V14.01,2013-02-25 11:55:00,
2013-02-25 06:00:00,37.5,30.6,30.16,East,84,13.0,15.0,76,0.00,,---,0.00,VWS V14.01,2013-02-25 12:00:00,
2013-02-25 06:05:00,37.5,30.6,30.16,East,79,11.0,14.0,76,0.00,,---,0.00,VWS V14.01,2013-02-25 12:05:00,
2013-02-25 06:10:00,37.5,30.3,30.16,East,84,12.0,14.0,75,0.00,,---,0.00,VWS V14.01,2013-02-25 12:10:00,
2013-02-25 06:15:00,37.5,30.3,30.16,ENE,69,6.0,14.0,75,0.00,,---,0.00,VWS V14.01,2013-02-25 12:15:00,
2013-02-25 06:20:00,37.3,30.1,30.16,ENE,76,9.0,15.0,75,0.00,,---,0.00,VWS V14.01,2013-02-25 12:20:00,
2013-02-25 06:25:00,37.3,30.1,30.16,East,90,10.0,17.0,75,0.00,,---,0.00,VWS V14.01,2013-02-25 12:25:00,
2013-02-25 06:30:00,37.5,30.3,30.16,ENE,78,11.0,17.0,75,0.00,,---,0.00,VWS V14.01,2013-02-25 12:30:00,
2013-02-25 06:35:00,37.5,30.3,30.16,ENE,76,6.0,15.0,75,0.00,,---,0.00,VWS V14.01,2013-02-25 12:35:00,
2013-02-25 06:40:00,37.6,30.4,30.16,ENE,78,11.0,16.0,75,0.00,,---,0.00,VWS V14.01,2013-02-25 12:40:00,
2013-02-25 06:45:00,37.6,30.1,30.15,ENE,60,16.0,18.0,74,0.00,,---,0.00,VWS V14.01,2013-02-25 12:45:00,
2013-02-25 06:50:00,37.8,30.3,30.15,ENE,77,16.0,18.0,74,0.00,,---,0.00,VWS V14.01,2013-02-25 12:50:00,
2013-02-25 06:55:00,37.8,30.3,30.15,East,84,12.0,17.0,74,0.00,,---,0.00,VWS V14.01,2013-02-25 12:55:00,
2013-02-25 07:00:00,37.9,30.4,30.15,ENE,74,13.0,17.0,74,0.00,,---,0.00,VWS V14.01,2013-02-25 13:00:00,
2013-02-25 07:05:00,38.0,30.1,30.15,East,84,12.0,15.0,73,0.00,,---,0.00,VWS V14.01,2013-02-25 13:05:00,
2013-02-25 07:10:00,38.0,30.1,30.15,ENE,71,11.0,16.0,73,0.00,,---,0.00,VWS V14.01,2013-02-25 13:10:00,
2013-02-25 07:15:00,38.2,30.3,30.16,ENE,68,18.0,18.0,73,0.00,,---,0.00,VWS V14.01,2013-02-25 13:15:00,
2013-02-25 07:20:00,38.3,30.1,30.16,East,80,17.0,18.0,72,0.00,,---,0.00,VWS V14.01,2013-02-25 13:20:00,
2013-02-25 07:25:00,38.5,30.3,30.16,ENE,74,13.0,16.0,72,0.00,,---,0.00,VWS V14.01,2013-02-25 13:25:00,
2013-02-25 07:30:00,38.5,30.3,30.13,ENE,62,12.0,18.0,72,0.00,,---,0.00,VWS V14.01,2013-02-25 13:30:00,
2013-02-25 07:35:00,38.6,30.4,30.13,ENE,68,14.0,17.0,72,0.00,,---,0.00,VWS V14.01,2013-02-25 13:35:00,
2013-02-25 07:40:00,38.6,30.0,30.13,ENE,73,12.0,18.0,71,0.00,,---,0.00,VWS V14.01,2013-02-25 13:40:00,
2013-02-25 07:45:00,38.6,30.0,30.11,East,80,18.0,18.0,71,0.00,,---,0.00,VWS V14.01,2013-02-25 13:45:00,
2013-02-25 07:50:00,38.8,30.2,30.11,ENE,76,17.0,22.0,71,0.00,,---,0.00,VWS V14.01,2013-02-25 13:50:00,
2013-02-25 07:55:00,38.9,30.3,30.11,ENE,69,17.0,20.0,71,0.00,,---,0.00,VWS V14.01,2013-02-25 13:55:00,
2013-02-25 08:00:00,39.1,30.2,30.10,East,84,14.0,20.0,70,0.00,,---,0.00,VWS V14.01,2013-02-25 14:00:00,
2013-02-25 08:05:00,39.2,29.9,30.10,East,101,10.0,20.0,69,0.00,,---,0.00,VWS V14.01,2013-02-25 14:05:00,
2013-02-25 08:10:00,39.3,30.0,30.10,East,85,10.0,20.0,69,0.00,,---,0.00,VWS V14.01,2013-02-25 14:10:00,
2013-02-25 08:15:00,39.5,30.2,30.11,ESE,112,6.0,14.0,69,0.00,,---,0.00,VWS V14.01,2013-02-25 14:15:00,
2013-02-25 08:20:00,39.6,30.3,30.11,East,100,10.0,15.0,69,0.00,,---,0.00,VWS V14.01,2013-02-25 14:20:00,
2013-02-25 08:25:00,39.9,30.2,30.11,East,79,14.0,14.0,68,0.00,,---,0.00,VWS V14.01,2013-02-25 14:25:00,
2013-02-25 08:30:00,40.2,30.1,30.12,ENE,68,12.0,15.0,67,0.00,,---,0.00,VWS V14.01,2013-02-25 14:30:00,
2013-02-25 08:35:00,40.3,30.2,30.12,ENE,69,10.0,16.0,67,0.00,,---,0.00,VWS V14.01,2013-02-25 14:35:00,
2013-02-25 08:40:00,40.5,30.4,30.12,NE,51,8.0,16.0,67,0.00,,---,0.00,VWS V14.01,2013-02-25 14:40:00,
2013-02-25 08:45:00,40.6,30.5,30.09,ESE,103,9.0,16.0,67,0.00,,---,0.00,VWS V14.01,2013-02-25 14:45:00,
2013-02-25 08:50:00,40.6,30.1,30.09,ENE,78,13.0,16.0,66,0.00,,---,0.00,VWS V14.01,2013-02-25 14:50:00,
2013-02-25 08:55:00,40.8,30.3,30.09,ENE,68,13.0,15.0,66,0.00,,---,0.00,VWS V14.01,2013-02-25 14:55:00,
2013-02-25 09:00:00,40.8,30.3,30.11,ENE,57,10.0,15.0,66,0.00,,---,0.00,VWS V14.01,2013-02-25 15:00:00,
2013-02-25 09:05:00,40.8,30.3,30.11,NE,55,9.0,14.0,66,0.00,,---,0.00,VWS V14.01,2013-02-25 15:05:00,
2013-02-25 09:10:00,40.9,30.4,30.11,ENE,69,5.0,14.0,66,0.00,,---,0.00,VWS V14.01,2013-02-25 15:10:00,
2013-02-25 09:15:00,40.9,30.1,30.13,ENE,64,4.0,11.0,65,0.00,,---,0.00,VWS V14.01,2013-02-25 15:15:00,
2013-02-25 09:20:00,40.9,30.1,30.13,NE,56,5.0,11.0,65,0.00,,---,0.00,VWS V14.01,2013-02-25 15:20:00,
2013-02-25 09:25:00,41.1,29.9,30.13,NE,46,16.0,16.0,64,0.00,,---,0.00,VWS V14.01,2013-02-25 15:25:00,
2013-02-25 09:30:00,41.2,30.0,30.08,NE,49,9.0,18.0,64,0.00,,---,0.00,VWS V14.01,2013-02-25 15:30:00,
2013-02-25 09:35:00,41.5,29.9,30.08,NE,47,15.0,19.0,63,0.00,,---,0.00,VWS V14.01,2013-02-25 15:35:00,
2013-02-25 09:40:00,41.6,29.6,30.08,NE,56,14.0,19.0,62,0.00,,---,0.00,VWS V14.01,2013-02-25 15:40:00,
2013-02-25 09:45:00,41.9,29.5,30.05,NE,44,12.0,25.0,61,0.00,,---,0.00,VWS V14.01,2013-02-25 15:45:00,
2013-02-25 09:50:00,42.1,29.6,30.05,NE,51,7.0,25.0,61,0.00,,---,0.00,VWS V14.01,2013-02-25 15:50:00,
2013-02-25 09:55:00,42.2,29.7,30.05,NE,51,13.0,18.0,61,0.00,,---,0.00,VWS V14.01,2013-02-25 15:55:00,
2013-02-25 10:00:00,42.3,29.4,30.08,NNE,17,6.0,18.0,60,0.00,,---,0.00,VWS V14.01,2013-02-25 16:00:00,
2013-02-25 10:05:00,42.3,29.4,30.08,NNE,25,2.0,9.0,60,0.00,,---,0.00,VWS V14.01,2013-02-25 16:05:00,
2013-02-25 10:10:00,42.5,29.2,30.08,NE,42,10.0,10.0,59,0.00,,---,0.00,VWS V14.01,2013-02-25 16:10:00,
2013-02-25 10:15:00,42.6,29.3,30.12,NE,55,7.0,16.0,59,0.00,,---,0.00,VWS V14.01,2013-02-25 16:15:00,
2013-02-25 10:20:00,42.9,29.6,30.12,NE,54,14.0,16.0,59,0.00,,---,0.00,VWS V14.01,2013-02-25 16:20:00,
2013-02-25 10:25:00,43.2,30.3,30.12,NE,42,11.0,17.0,60,0.00,,---,0.00,VWS V14.01,2013-02-25 16:25:00,
2013-02-25 10:30:00,43.3,30.4,30.08,ENE,67,5.0,17.0,60,0.00,,---,0.00,VWS V14.01,2013-02-25 16:30:00,
2013-02-25 10:35:00,43.2,30.3,30.08,ENE,61,17.0,17.0,60,0.00,,---,0.00,VWS V14.01,2013-02-25 16:35:00,
2013-02-25 10:40:00,43.2,30.7,30.08,ENE,70,8.0,17.0,61,0.00,,---,0.00,VWS V14.01,2013-02-25 16:40:00,
2013-02-25 10:45:00,43.3,31.2,30.05,ENE,64,10.0,14.0,62,0.00,,---,0.00,VWS V14.01,2013-02-25 16:45:00,
2013-02-25 10:50:00,43.2,31.9,30.05,ENE,64,9.0,17.0,64,0.00,,---,0.00,VWS V14.01,2013-02-25 16:50:00,
2013-02-25 10:55:00,42.9,32.7,30.05,ENE,69,9.0,19.0,67,0.01,,---,0.01,VWS V14.01,2013-02-25 16:55:00,
2013-02-25 11:00:00,42.5,32.7,30.06,ENE,78,11.0,19.0,68,0.01,,---,0.01,VWS V14.01,2013-02-25 17:00:00,
2013-02-25 11:05:00,41.9,32.8,30.06,ENE,76,12.0,18.0,70,0.01,,---,0.01,VWS V14.01,2013-02-25 17:05:00,
2013-02-25 11:10:00,41.5,32.8,30.06,ENE,69,17.0,18.0,71,0.01,,---,0.01,VWS V14.01,2013-02-25 17:10:00,
2013-02-25 11:15:00,41.2,32.9,30.03,ENE,74,11.0,18.0,72,0.01,,---,0.01,VWS V14.01,2013-02-25 17:15:00,
2013-02-25 11:20:00,41.1,33.5,30.03,ENE,62,13.0,20.0,74,0.01,,---,0.01,VWS V14.01,2013-02-25 17:20:00,
2013-02-25 11:25:00,41.1,33.8,30.03,ENE,62,14.0,19.0,75,0.01,,---,0.01,VWS V14.01,2013-02-25 17:25:00,
2013-02-25 11:30:00,40.8,33.5,30.00,NE,56,12.0,19.0,75,0.01,,---,0.01,VWS V14.01,2013-02-25 17:30:00,
2013-02-25 11:35:00,40.5,33.5,30.00,ENE,70,10.0,19.0,76,0.01,,---,0.01,VWS V14.01,2013-02-25 17:35:00,
2013-02-25 11:40:00,40.3,33.3,30.00,ENE,74,19.0,19.0,76,0.01,,---,0.01,VWS V14.01,2013-02-25 17:40:00,
2013-02-25 11:45:00,40.1,33.2,29.98,ENE,59,17.0,22.0,76,0.01,,---,0.01,VWS V14.01,2013-02-25 17:45:00,
2013-02-25 11:50:00,40.1,33.2,29.98,ENE,69,19.0,22.0,76,0.01,,---,0.01,VWS V14.01,2013-02-25 17:50:00,
2013-02-25 11:55:00,39.9,33.0,29.98,East,89,14.0,22.0,76,0.01,,---,0.01,VWS V14.01,2013-02-25 17:55:00,
2013-02-25 12:00:00,39.8,32.5,29.95,East,91,16.0,24.0,75,0.01,,---,0.01,VWS V14.01,2013-02-25 18:00:00,
2013-02-25 12:05:00,39.6,32.3,29.95,East,80,9.0,25.0,75,0.00,,---,0.01,VWS V14.01,2013-02-25 18:05:00,
2013-02-25 12:10:00,39.6,33.0,29.95,ENE,70,13.0,25.0,77,0.00,,---,0.01,VWS V14.01,2013-02-25 18:10:00,
2013-02-25 12:15:00,39.6,32.3,29.95,ENE,78,17.0,21.0,75,0.00,,---,0.01,VWS V14.01,2013-02-25 18:15:00,
2013-02-25 12:20:00,39.8,32.2,29.95,East,90,15.0,21.0,74,0.00,,---,0.01,VWS V14.01,2013-02-25 18:20:00,
2013-02-25 12:25:00,39.9,31.6,29.95,ENE,69,16.0,26.0,72,0.00,,---,0.01,VWS V14.01,2013-02-25 18:25:00,
2013-02-25 12:30:00,40.1,32.2,29.94,ENE,68,15.0,26.0,73,0.00,,---,0.01,VWS V14.01,2013-02-25 18:30:00,
2013-02-25 12:35:00,40.3,32.3,29.94,ENE,73,16.0,26.0,73,0.00,,---,0.01,VWS V14.01,2013-02-25 18:35:00,
2013-02-25 12:40:00,40.3,32.3,29.94,ENE,74,22.0,26.0,73,0.00,,---,0.01,VWS V14.01,2013-02-25 18:40:00,
2013-02-25 12:45:00,40.5,32.9,29.90,ENE,60,18.0,28.0,74,0.01,,---,0.02,VWS V14.01,2013-02-25 18:45:00,
2013-02-25 12:50:00,40.5,32.9,29.90,ENE,76,19.0,28.0,74,0.01,,---,0.02,VWS V14.01,2013-02-25 18:50:00,
2013-02-25 12:55:00,40.5,32.9,29.90,SW,229,8.0,16.0,74,0.01,,---,0.02,VWS V14.01,2013-02-25 18:55:00,
2013-02-25 13:00:00,40.8,32.8,30.02,West,275,23.0,25.0,73,0.01,,---,0.02,VWS V14.01,2013-02-25 19:00:00,
2013-02-25 13:05:00,41.1,32.8,30.02,NNW,342,9.0,24.0,72,0.02,,---,0.03,VWS V14.01,2013-02-25 19:05:00,
2013-02-25 13:10:00,41.1,32.8,30.02,NNE,28,9.0,24.0,72,0.02,,---,0.03,VWS V14.01,2013-02-25 19:10:00,
2013-02-25 13:15:00,41.2,32.9,29.99,ENE,65,5.0,9.0,72,0.03,,---,0.04,VWS V14.01,2013-02-25 19:15:00,
2013-02-25 13:20:00,41.1,33.1,29.99,NE,49,11.0,11.0,73,0.04,,---,0.05,VWS V14.01,2013-02-25 19:20:00,
2013-02-25 13:25:00,41.1,33.5,29.99,ENE,57,11.0,17.0,74,0.06,,---,0.07,VWS V14.01,2013-02-25 19:25:00,
2013-02-25 13:30:00,40.9,33.6,29.95,NNE,17,10.0,17.0,75,0.07,,---,0.08,VWS V14.01,2013-02-25 19:30:00,
2013-02-25 13:35:00,40.8,33.8,29.95,WNW,288,4.0,7.0,76,0.08,,---,0.09,VWS V14.01,2013-02-25 19:35:00,
2013-02-25 13:40:00,40.6,34.0,29.95,SW,232,5.0,9.0,77,0.08,,---,0.09,VWS V14.01,2013-02-25 19:40:00,
2013-02-25 13:45:00,40.5,34.2,30.00,WNW,286,2.0,7.0,78,0.09,,---,0.10,VWS V14.01,2013-02-25 19:45:00,
2013-02-25 13:50:00,40.3,34.0,30.00,NNW,327,0.0,7.0,78,0.11,,---,0.12,VWS V14.01,2013-02-25 19:50:00,
2013-02-25 13:55:00,40.1,34.1,30.00,NE,52,6.0,7.0,79,0.12,,---,0.14,VWS V14.01,2013-02-25 19:55:00,
2013-02-25 14:00:00,39.6,34.0,29.95,NNE,30,9.0,14.0,80,0.13,,---,0.15,VWS V14.01,2013-02-25 20:00:00,
2013-02-25 14:05:00,39.5,34.2,29.95,NE,45,10.0,17.0,81,0.13,,---,0.15,VWS V14.01,2013-02-25 20:05:00,
2013-02-25 14:10:00,39.3,34.3,29.95,NE,51,17.0,18.0,82,0.14,,---,0.16,VWS V14.01,2013-02-25 20:10:00,
2013-02-25 14:15:00,39.5,34.8,29.95,ENE,63,13.0,17.0,83,0.14,,---,0.17,VWS V14.01,2013-02-25 20:15:00,
2013-02-25 14:20:00,39.6,34.9,29.95,NE,42,7.0,17.0,83,0.14,,---,0.17,VWS V14.01,2013-02-25 20:20:00,
2013-02-25 14:25:00,39.6,35.2,29.95,NE,40,10.0,12.0,84,0.12,,---,0.17,VWS V14.01,2013-02-25 20:25:00,
2013-02-25 14:30:00,39.8,35.4,29.94,NE,38,7.0,16.0,84,0.13,,---,0.18,VWS V14.01,2013-02-25 20:30:00,
2013-02-25 14:35:00,39.9,35.5,29.94,NE,52,11.0,12.0,84,0.10,,---,0.18,VWS V14.01,2013-02-25 20:35:00,
2013-02-25 14:40:00,40.2,36.1,29.94,NE,46,7.0,12.0,85,0.11,,---,0.19,VWS V14.01,2013-02-25 20:40:00,
2013-02-25 14:45:00,40.3,36.2,29.95,ENE,60,5.0,9.0,85,0.10,,---,0.19,VWS V14.01,2013-02-25 20:45:00,
2013-02-25 14:50:00,40.3,36.2,29.95,NE,36,8.0,10.0,85,0.10,,---,0.19,VWS V14.01,2013-02-25 20:50:00,
2013-02-25 14:55:00,40.6,36.8,29.95,NE,46,9.0,9.0,86,0.07,,---,0.19,VWS V14.01,2013-02-25 20:55:00,
2013-02-25 15:00:00,40.9,37.0,29.93,NE,42,5.0,10.0,86,0.07,,---,0.19,VWS V14.01,2013-02-25 21:00:00,
2013-02-25 15:05:00,41.1,37.2,29.93,NE,35,6.0,7.0,86,0.04,,---,0.19,VWS V14.01,2013-02-25 21:05:00,
2013-02-25 15:10:00,41.2,37.3,29.93,NE,55,11.0,14.0,86,0.04,,---,0.19,VWS V14.01,2013-02-25 21:10:00,
2013-02-25 15:15:00,41.2,37.3,29.92,ENE,63,4.0,14.0,86,0.03,,---,0.19,VWS V14.01,2013-02-25 21:15:00,
2013-02-25 15:20:00,41.2,37.6,29.92,NE,52,6.0,14.0,87,0.03,,---,0.19,VWS V14.01,2013-02-25 21:20:00,
2013-02-25 15:25:00,41.2,37.6,29.92,ENE,58,11.0,11.0,87,0.02,,---,0.19,VWS V14.01,2013-02-25 21:25:00,
2013-02-25 15:30:00,41.3,37.7,29.90,NE,51,7.0,12.0,87,0.02,,---,0.19,VWS V14.01,2013-02-25 21:30:00,
2013-02-25 15:35:00,41.6,38.0,29.90,ENE,59,6.0,12.0,87,0.01,,---,0.19,VWS V14.01,2013-02-25 21:35:00,
2013-02-25 15:40:00,41.8,38.2,29.90,NE,40,13.0,15.0,87,0.01,,---,0.19,VWS V14.01,2013-02-25 21:40:00,
2013-02-25 15:45:00,41.8,38.2,29.91,ENE,58,6.0,12.0,87,0.00,,---,0.19,VWS V14.01,2013-02-25 21:45:00,
2013-02-25 15:50:00,41.8,38.2,29.91,ENE,71,7.0,12.0,87,0.00,,---,0.19,VWS V14.01,2013-02-25 21:50:00,
2013-02-25 15:55:00,41.9,38.3,29.91,NE,48,8.0,14.0,87,0.00,,---,0.19,VWS V14.01,2013-02-25 21:55:00,
2013-02-25 16:00:00,41.9,38.3,29.90,NE,42,6.0,15.0,87,0.00,,---,0.19,VWS V14.01,2013-02-25 22:00:00,
2013-02-25 16:05:00,41.9,38.3,29.90,ENE,62,5.0,12.0,87,0.01,,---,0.20,VWS V14.01,2013-02-25 22:05:00,
2013-02-25 16:10:00,41.9,38.6,29.90,ENE,59,8.0,13.0,88,0.01,,---,0.20,VWS V14.01,2013-02-25 22:10:00,
2013-02-25 16:15:00,42.1,38.8,29.90,ENE,73,11.0,18.0,88,0.01,,---,0.20,VWS V14.01,2013-02-25 22:15:00,
2013-02-25 16:20:00,42.2,38.9,29.90,ENE,68,7.0,18.0,88,0.01,,---,0.20,VWS V14.01,2013-02-25 22:20:00,
2013-02-25 16:25:00,42.2,38.9,29.90,ENE,78,12.0,16.0,88,0.01,,---,0.20,VWS V14.01,2013-02-25 22:25:00,
2013-02-25 16:30:00,42.2,38.9,29.89,East,83,9.0,17.0,88,0.02,,---,0.21,VWS V14.01,2013-02-25 22:30:00,
2013-02-25 16:35:00,42.2,38.9,29.89,ENE,63,10.0,13.0,88,0.02,,---,0.21,VWS V14.01,2013-02-25 22:35:00,
2013-02-25 16:40:00,42.2,38.9,29.89,ENE,59,9.0,15.0,88,0.02,,---,0.21,VWS V14.01,2013-02-25 22:40:00,
2013-02-25 16:45:00,42.2,38.9,29.89,NE,44,6.0,14.0,88,0.03,,---,0.22,VWS V14.01,2013-02-25 22:45:00,
2013-02-25 16:50:00,42.1,38.8,29.89,ENE,61,9.0,14.0,88,0.03,,---,0.22,VWS V14.01,2013-02-25 22:50:00,
2013-02-25 16:55:00,41.9,38.6,29.89,ENE,74,11.0,13.0,88,0.03,,---,0.22,VWS V14.01,2013-02-25 22:55:00,
2013-02-25 17:00:00,41.9,38.6,29.86,NE,56,10.0,17.0,88,0.03,,---,0.22,VWS V14.01,2013-02-25 23:00:00,
2013-02-25 17:05:00,41.8,38.8,29.86,NE,48,9.0,18.0,89,0.03,,---,0.22,VWS V14.01,2013-02-25 23:05:00,
2013-02-25 17:10:00,41.8,38.8,29.86,NE,49,14.0,20.0,89,0.03,,---,0.22,VWS V14.01,2013-02-25 23:10:00,
2013-02-25 17:15:00,41.6,38.6,29.85,ENE,62,7.0,21.0,89,0.02,,---,0.22,VWS V14.01,2013-02-25 23:15:00,
2013-02-25 17:20:00,41.6,38.6,29.85,East,90,11.0,21.0,89,0.02,,---,0.22,VWS V14.01,2013-02-25 23:20:00,
2013-02-25 17:25:00,41.5,38.5,29.85,ENE,62,8.0,16.0,89,0.02,,---,0.22,VWS V14.01,2013-02-25 23:25:00,
2013-02-25 17:30:00,41.5,38.5,29.86,ENE,77,14.0,23.0,89,0.02,,---,0.22,VWS V14.01,2013-02-25 23:30:00,
2013-02-25 17:35:00,41.3,38.3,29.86,ENE,67,11.0,19.0,89,0.01,,---,0.22,VWS V14.01,2013-02-25 23:35:00,
2013-02-25 17:40:00,41.2,38.2,29.86,ENE,77,10.0,19.0,89,0.01,,---,0.22,VWS V14.01,2013-02-25 23:40:00,
2013-02-25 17:45:00,41.2,38.2,29.88,ENE,65,16.0,19.0,89,0.01,,---,0.22,VWS V14.01,2013-02-25 23:45:00,
2013-02-25 17:50:00,40.9,37.9,29.88,ENE,77,17.0,20.0,89,0.01,,---,0.22,VWS V14.01,2013-02-25 23:50:00,
2013-02-25 17:55:00,40.8,37.8,29.88,ENE,67,18.0,21.0,89,0.00,,---,0.22,VWS V14.01,2013-02-25 23:55:00,
2013-02-25 18:00:00,40.6,37.6,29.90,ENE,78,16.0,22.0,89,0.00,,---,0.22,VWS V14.01,2013-02-26 00:00:00,
2013-02-25 18:05:00,40.5,37.5,29.90,East,79,11.0,18.0,89,0.00,,---,0.22,VWS V14.01,2013-02-26 00:05:00,
2013-02-25 18:10:00,40.5,37.5,29.90,East,82,15.0,19.0,89,0.00,,---,0.22,VWS V14.01,2013-02-26 00:10:00,
2013-02-25 18:15:00,40.3,37.0,29.88,ESE,102,13.0,21.0,88,0.00,,---,0.22,VWS V14.01,2013-02-26 00:15:00,
2013-02-25 18:20:00,40.2,36.9,29.88,ENE,78,10.0,21.0,88,0.00,,---,0.22,VWS V14.01,2013-02-26 00:20:00,
2013-02-25 18:25:00,40.2,37.2,29.88,East,80,18.0,21.0,89,0.00,,---,0.22,VWS V14.01,2013-02-26 00:25:00,
2013-02-25 18:30:00,40.1,37.1,29.88,ENE,78,13.0,22.0,89,0.00,,---,0.22,VWS V14.01,2013-02-26 00:30:00,
2013-02-25 18:35:00,40.1,37.1,29.88,East,83,15.0,19.0,89,0.00,,---,0.22,VWS V14.01,2013-02-26 00:35:00,
2013-02-25 18:40:00,40.1,37.1,29.88,ENE,69,14.0,20.0,89,0.00,,---,0.22,VWS V14.01,2013-02-26 00:40:00,
2013-02-25 18:45:00,40.1,37.1,29.88,ENE,65,20.0,22.0,89,0.00,,---,0.22,VWS V14.01,2013-02-26 00:45:00,
2013-02-25 18:50:00,40.1,37.1,29.88,East,86,12.0,22.0,89,0.00,,---,0.22,VWS V14.01,2013-02-26 00:50:00,
2013-02-25 18:55:00,40.1,37.1,29.88,East,86,10.0,19.0,89,0.00,,---,0.22,VWS V14.01,2013-02-26 00:55:00,
2013-02-25 19:00:00,40.1,37.1,29.87,ENE,76,16.0,21.0,89,0.00,,---,0.22,VWS V14.01,2013-02-26 01:00:00,
2013-02-25 19:05:00,40.1,37.1,29.87,ENE,72,12.0,23.0,89,0.00,,---,0.22,VWS V14.01,2013-02-26 01:05:00,
2013-02-25 19:10:00,40.1,37.1,29.87,ENE,76,16.0,23.0,89,0.00,,---,0.22,VWS V14.01,2013-02-26 01:10:00,
2013-02-25 19:15:00,40.1,37.1,29.87,ENE,77,12.0,15.0,89,0.00,,---,0.22,VWS V14.01,2013-02-26 01:15:00,
2013-02-25 19:20:00,40.1,37.1,29.87,East,88,14.0,18.0,89,0.00,,---,0.22,VWS V14.01,2013-02-26 01:20:00,
2013-02-25 19:25:00,40.1,37.1,29.87,ENE,64,9.0,20.0,89,0.00,,---,0.22,VWS V14.01,2013-02-26 01:25:00,
2013-02-25 19:30:00,40.2,37.2,29.86,ESE,117,11.0,20.0,89,0.00,,---,0.22,VWS V14.01,2013-02-26 01:30:00,
2013-02-25 19:35:00,40.2,37.2,29.86,East,82,11.0,19.0,89,0.00,,---,0.22,VWS V14.01,2013-02-26 01:35:00,
2013-02-25 19:40:00,40.2,37.2,29.86,East,80,10.0,19.0,89,0.00,,---,0.22,VWS V14.01,2013-02-26 01:40:00,
2013-02-25 19:45:00,40.2,37.5,29.85,ENE,66,14.0,18.0,90,0.00,,---,0.22,VWS V14.01,2013-02-26 01:45:00,
2013-02-25 19:50:00,40.2,37.5,29.85,ENE,71,12.0,18.0,90,0.00,,---,0.22,VWS V14.01,2013-02-26 01:50:00,
2013-02-25 19:55:00,40.2,37.5,29.85,ENE,65,11.0,21.0,90,0.00,,---,0.22,VWS V14.01,2013-02-26 01:55:00,
2013-02-25 20:00:00,40.2,37.5,29.85,ENE,73,14.0,21.0,90,0.00,,---,0.22,VWS V14.01,2013-02-26 02:00:00,
2013-02-25 20:05:00,40.2,37.5,29.85,NE,55,16.0,22.0,90,0.00,,---,0.22,VWS V14.01,2013-02-26 02:05:00,
2013-02-25 20:10:00,40.2,37.5,29.85,East,81,15.0,22.0,90,0.00,,---,0.22,VWS V14.01,2013-02-26 02:10:00,
2013-02-25 20:15:00,40.3,37.6,29.84,East,85,13.0,23.0,90,0.00,,---,0.22,VWS V14.01,2013-02-26 02:15:00,
2013-02-25 20:20:00,40.3,37.6,29.84,ENE,73,14.0,23.0,90,0.00,,---,0.22,VWS V14.01,2013-02-26 02:20:00,
2013-02-25 20:25:00,40.3,37.6,29.84,ENE,67,12.0,20.0,90,0.00,,---,0.22,VWS V14.01,2013-02-26 02:25:00,
2013-02-25 20:30:00,40.2,37.5,29.83,ENE,72,12.0,20.0,90,0.00,,---,0.22,VWS V14.01,2013-02-26 02:30:00,
2013-02-25 20:35:00,40.2,37.5,29.83,ENE,68,14.0,23.0,90,0.00,,---,0.22,VWS V14.01,2013-02-26 02:35:00,
2013-02-25 20:40:00,40.2,37.5,29.83,ENE,61,9.0,23.0,90,0.00,,---,0.22,VWS V14.01,2013-02-26 02:40:00,
2013-02-25 20:45:00,40.1,37.4,29.83,NE,55,13.0,17.0,90,0.00,,---,0.22,VWS V14.01,2013-02-26 02:45:00,
2013-02-25 20:50:00,40.1,37.4,29.83,East,85,12.0,17.0,90,0.00,,---,0.22,VWS V14.01,2013-02-26 02:50:00,
2013-02-25 20:55:00,40.1,37.4,29.83,ESE,103,4.0,17.0,90,0.00,,---,0.22,VWS V14.01,2013-02-26 02:55:00,
2013-02-25 21:00:00,40.1,37.4,29.86,SE,130,4.0,17.0,90,0.00,,---,0.22,VWS V14.01,2013-02-26 03:00:00,
2013-02-25 21:05:00,40.1,37.4,29.86,ENE,74,10.0,12.0,90,0.00,,---,0.22,VWS V14.01,2013-02-26 03:05:00,
2013-02-25 21:10:00,40.1,37.4,29.86,ESE,123,10.0,13.0,90,0.01,,---,0.23,VWS V14.01,2013-02-26 03:10:00,
2013-02-25 21:15:00,40.1,37.4,29.84,ENE,75,11.0,12.0,90,0.04,,---,0.26,VWS V14.01,2013-02-26 03:15:00,
2013-02-25 21:20:00,40.1,37.4,29.84,ENE,78,10.0,13.0,90,0.05,,---,0.27,VWS V14.01,2013-02-26 03:20:00,
2013-02-25 21:25:00,39.9,37.2,29.84,East,87,10.0,18.0,90,0.07,,---,0.29,VWS V14.01,2013-02-26 03:25:00,
2013-02-25 21:30:00,39.8,37.1,29.84,East,84,14.0,18.0,90,0.07,,---,0.29,VWS V14.01,2013-02-26 03:30:00,
2013-02-25 21:35:00,39.5,36.5,29.84,East,84,11.0,17.0,89,0.08,,---,0.30,VWS V14.01,2013-02-26 03:35:00,
2013-02-25 21:40:00,39.3,36.3,29.84,ENE,76,10.0,17.0,89,0.09,,---,0.31,VWS V14.01,2013-02-26 03:40:00,
2013-02-25 21:45:00,39.3,36.6,29.84,ESE,105,11.0,13.0,90,0.09,,---,0.31,VWS V14.01,2013-02-26 03:45:00,
2013-02-25 21:50:00,39.2,36.5,29.84,ENE,65,7.0,14.0,90,0.09,,---,0.31,VWS V14.01,2013-02-26 03:50:00,
2013-02-25 21:55:00,39.2,36.5,29.84,ENE,65,7.0,15.0,90,0.09,,---,0.31,VWS V14.01,2013-02-26 03:55:00,
2013-02-25 22:00:00,39.1,36.4,29.84,East,83,12.0,20.0,90,0.09,,---,0.31,VWS V14.01,2013-02-26 04:00:00,
2013-02-25 22:05:00,38.9,36.2,29.84,ENE,76,15.0,19.0,90,0.10,,---,0.32,VWS V14.01,2013-02-26 04:05:00,
2013-02-25 22:10:00,38.8,36.1,29.84,ENE,75,10.0,19.0,90,0.10,,---,0.32,VWS V14.01,2013-02-26 04:10:00,
2013-02-25 22:15:00,38.8,36.1,29.83,ENE,70,7.0,16.0,90,0.09,,---,0.32,VWS V14.01,2013-02-26 04:15:00,
2013-02-25 22:20:00,38.6,35.9,29.83,ENE,75,8.0,16.0,90,0.09,,---,0.32,VWS V14.01,2013-02-26 04:20:00,
2013-02-25 22:25:00,38.6,35.9,29.83,ENE,73,7.0,12.0,90,0.05,,---,0.32,VWS V14.01,2013-02-26 04:25:00,
2013-02-25 22:30:00,38.6,35.9,29.83,ENE,70,6.0,12.0,90,0.05,,---,0.32,VWS V14.01,2013-02-26 04:30:00,
2013-02-25 22:35:00,38.6,35.9,29.83,NE,49,5.0,10.0,90,0.03,,---,0.32,VWS V14.01,2013-02-26 04:35:00,
2013-02-25 22:40:00,38.6,35.9,29.83,ENE,61,9.0,13.0,90,0.03,,---,0.32,VWS V14.01,2013-02-26 04:40:00,
2013-02-25 22:45:00,38.5,35.8,29.82,ENE,76,11.0,11.0,90,0.01,,---,0.32,VWS V14.01,2013-02-26 04:45:00,
2013-02-25 22:50:00,38.5,35.8,29.82,ENE,58,4.0,11.0,90,0.01,,---,0.32,VWS V14.01,2013-02-26 04:50:00,
2013-02-25 22:55:00,38.5,35.8,29.82,NE,55,11.0,11.0,90,0.01,,---,0.32,VWS V14.01,2013-02-26 04:55:00,
2013-02-25 23:00:00,38.3,35.6,29.82,ENE,69,7.0,11.0,90,0.01,,---,0.32,VWS V14.01,2013-02-26 05:00:00,
2013-02-25 23:05:00,38.2,35.5,29.82,ENE,67,4.0,12.0,90,0.01,,---,0.32,VWS V14.01,2013-02-26 05:05:00,
2013-02-25 23:10:00,38.0,35.3,29.82,NE,51,9.0,12.0,90,0.01,,---,0.32,VWS V14.01,2013-02-26 05:10:00,
2013-02-25 23:15:00,37.9,35.2,29.82,NE,49,5.0,9.0,90,0.00,,---,0.32,VWS V14.01,2013-02-26 05:15:00,
2013-02-25 23:20:00,37.9,35.2,29.82,NE,40,4.0,12.0,90,0.00,,---,0.32,VWS V14.01,2013-02-26 05:20:00,
2013-02-25 23:25:00,37.9,35.2,29.82,NE,47,4.0,10.0,90,0.00,,---,0.32,VWS V14.01,2013-02-26 05:25:00,
2013-02-25 23:30:00,37.9,35.2,29.82,NE,54,11.0,13.0,90,0.00,,---,0.32,VWS V14.01,2013-02-26 05:30:00,
2013-02-25 23:35:00,37.9,35.2,29.82,ENE,69,10.0,10.0,90,0.00,,---,0.32,VWS V14.01,2013-02-26 05:35:00,
2013-02-25 23:40:00,37.9,35.2,29.82,ENE,57,6.0,10.0,90,0.00,,---,0.32,VWS V14.01,2013-02-26 05:40:00,
2013-02-25 23:45:00,37.9,35.2,29.82,ENE,63,6.0,10.0,90,0.00,,---,0.32,VWS V14.01,2013-02-26 05:45:00,
2013-02-25 23:50:00,37.9,35.2,29.82,ENE,68,7.0,10.0,90,0.00,,---,0.32,VWS V14.01,2013-02-26 05:50:00,
2013-02-25 23:55:00,37.9,35.2,29.82,ENE,71,6.0,9.0,90,0.00,,---,0.32,VWS V14.01,2013-02-26 05:55:00,